sensor_id;sensor_type;location;lat;lon;timestamp;temperature;humidity
73955;DHT22;62306;52.516;13.290;2023-01-25T00:00:28;2.50;89.60
73955;DHT22;62306;52.516;13.290;2023-01-25T00:02:56;2.40;89.80
73955;DHT22;62306;52.516;13.290;2023-01-25T00:05:23;2.40;90.20
73955;DHT22;62306;52.516;13.290;2023-01-25T00:07:50;2.40;90.10
73955;DHT22;62306;52.516;13.290;2023-01-25T00:10:17;2.40;90.20
73955;DHT22;62306;52.516;13.290;2023-01-25T00:12:44;2.30;90.70
73955;DHT22;62306;52.516;13.290;2023-01-25T00:15:11;2.30;90.90
73955;DHT22;62306;52.516;13.290;2023-01-25T00:17:40;2.40;90.50
73955;DHT22;62306;52.516;13.290;2023-01-25T00:20:08;2.50;90.10
73955;DHT22;62306;52.516;13.290;2023-01-25T00:22:35;2.60;90.00
73955;DHT22;62306;52.516;13.290;2023-01-25T00:25:02;2.50;90.00
73955;DHT22;62306;52.516;13.290;2023-01-25T00:27:29;2.50;89.90
73955;DHT22;62306;52.516;13.290;2023-01-25T00:29:56;2.60;89.90
73955;DHT22;62306;52.516;13.290;2023-01-25T00:32:53;2.50;89.90
73955;DHT22;62306;52.516;13.290;2023-01-25T00:35:29;2.50;90.10
73955;DHT22;62306;52.516;13.290;2023-01-25T00:38:00;2.50;90.10
73955;DHT22;62306;52.516;13.290;2023-01-25T00:40:28;2.50;90.20
73955;DHT22;62306;52.516;13.290;2023-01-25T00:42:55;2.60;90.00
73955;DHT22;62306;52.516;13.290;2023-01-25T00:45:22;2.60;89.90
73955;DHT22;62306;52.516;13.290;2023-01-25T00:47:53;2.60;89.90
73955;DHT22;62306;52.516;13.290;2023-01-25T00:50:20;2.60;90.20
73955;DHT22;62306;52.516;13.290;2023-01-25T00:52:47;2.60;90.30
73955;DHT22;62306;52.516;13.290;2023-01-25T00:55:14;2.60;90.30
73955;DHT22;62306;52.516;13.290;2023-01-25T00:57:41;2.60;90.40
73955;DHT22;62306;52.516;13.290;2023-01-25T01:00:09;2.60;90.30
73955;DHT22;62306;52.516;13.290;2023-01-25T01:02:36;2.60;90.20
73955;DHT22;62306;52.516;13.290;2023-01-25T01:05:06;2.80;89.40
73955;DHT22;62306;52.516;13.290;2023-01-25T01:07:33;2.70;89.60
73955;DHT22;62306;52.516;13.290;2023-01-25T01:10:00;2.80;89.20
73955;DHT22;62306;52.516;13.290;2023-01-25T01:12:27;2.80;88.80
73955;DHT22;62306;52.516;13.290;2023-01-25T01:14:54;2.80;89.30
73955;DHT22;62306;52.516;13.290;2023-01-25T01:17:21;2.80;89.50
73955;DHT22;62306;52.516;13.290;2023-01-25T01:19:48;2.80;89.20
73955;DHT22;62306;52.516;13.290;2023-01-25T01:22:16;2.80;89.80
73955;DHT22;62306;52.516;13.290;2023-01-25T01:24:43;2.80;89.70
73955;DHT22;62306;52.516;13.290;2023-01-25T01:27:10;2.80;89.40
73955;DHT22;62306;52.516;13.290;2023-01-25T01:29:37;2.80;89.70
73955;DHT22;62306;52.516;13.290;2023-01-25T01:32:04;2.70;89.90
73955;DHT22;62306;52.516;13.290;2023-01-25T01:34:32;2.60;90.10
73955;DHT22;62306;52.516;13.290;2023-01-25T01:36:59;2.60;90.40
73955;DHT22;62306;52.516;13.290;2023-01-25T01:39:27;2.60;91.10
73955;DHT22;62306;52.516;13.290;2023-01-25T01:41:54;2.60;90.80
73955;DHT22;62306;52.516;13.290;2023-01-25T01:44:43;2.70;91.50
73955;DHT22;62306;52.516;13.290;2023-01-25T01:47:15;2.60;91.00
73955;DHT22;62306;52.516;13.290;2023-01-25T01:49:47;2.60;90.90
73955;DHT22;62306;52.516;13.290;2023-01-25T01:52:17;2.60;90.80
73955;DHT22;62306;52.516;13.290;2023-01-25T01:54:50;2.60;91.00
73955;DHT22;62306;52.516;13.290;2023-01-25T01:57:21;2.50;90.60
73955;DHT22;62306;52.516;13.290;2023-01-25T01:59:51;2.50;90.80
73955;DHT22;62306;52.516;13.290;2023-01-25T02:02:21;2.50;90.80
73955;DHT22;62306;52.516;13.290;2023-01-25T02:04:50;2.40;91.40
73955;DHT22;62306;52.516;13.290;2023-01-25T02:07:21;2.40;91.20
73955;DHT22;62306;52.516;13.290;2023-01-25T02:09:51;2.40;91.40
73955;DHT22;62306;52.516;13.290;2023-01-25T02:12:20;2.50;91.10
73955;DHT22;62306;52.516;13.290;2023-01-25T02:14:51;2.50;91.10
73955;DHT22;62306;52.516;13.290;2023-01-25T02:17:20;2.50;91.10
73955;DHT22;62306;52.516;13.290;2023-01-25T02:19:51;2.50;91.40
73955;DHT22;62306;52.516;13.290;2023-01-25T02:22:25;2.40;91.20
73955;DHT22;62306;52.516;13.290;2023-01-25T02:25:06;2.50;91.30
73955;DHT22;62306;52.516;13.290;2023-01-25T02:27:37;2.40;91.40
73955;DHT22;62306;52.516;13.290;2023-01-25T02:30:06;2.40;91.50
73955;DHT22;62306;52.516;13.290;2023-01-25T02:32:33;2.50;91.50
73955;DHT22;62306;52.516;13.290;2023-01-25T02:35:00;2.50;91.30
73955;DHT22;62306;52.516;13.290;2023-01-25T02:37:27;2.50;91.40
73955;DHT22;62306;52.516;13.290;2023-01-25T02:39:54;2.50;91.40
73955;DHT22;62306;52.516;13.290;2023-01-25T02:42:23;2.50;91.60
73955;DHT22;62306;52.516;13.290;2023-01-25T02:44:50;2.60;91.40
73955;DHT22;62306;52.516;13.290;2023-01-25T02:47:18;2.60;91.30
73955;DHT22;62306;52.516;13.290;2023-01-25T02:49:45;2.70;91.00
73955;DHT22;62306;52.516;13.290;2023-01-25T02:52:11;2.70;91.20
73955;DHT22;62306;52.516;13.290;2023-01-25T02:54:38;2.80;90.90
73955;DHT22;62306;52.516;13.290;2023-01-25T02:57:05;2.80;91.00
73955;DHT22;62306;52.516;13.290;2023-01-25T02:59:34;2.80;90.90
73955;DHT22;62306;52.516;13.290;2023-01-25T03:02:01;2.80;90.90
73955;DHT22;62306;52.516;13.290;2023-01-25T03:04:28;2.80;91.00
73955;DHT22;62306;52.516;13.290;2023-01-25T03:06:54;2.70;90.90
73955;DHT22;62306;52.516;13.290;2023-01-25T03:09:22;2.70;91.00
73955;DHT22;62306;52.516;13.290;2023-01-25T03:11:49;2.70;90.80
73955;DHT22;62306;52.516;13.290;2023-01-25T03:14:15;2.70;91.00
73955;DHT22;62306;52.516;13.290;2023-01-25T03:16:44;2.70;91.30
73955;DHT22;62306;52.516;13.290;2023-01-25T03:19:10;2.70;91.10
73955;DHT22;62306;52.516;13.290;2023-01-25T03:21:39;2.80;90.90
73955;DHT22;62306;52.516;13.290;2023-01-25T03:24:09;2.70;90.80
73955;DHT22;62306;52.516;13.290;2023-01-25T03:26:35;2.70;91.00
73955;DHT22;62306;52.516;13.290;2023-01-25T03:29:22;2.70;91.10
73955;DHT22;62306;52.516;13.290;2023-01-25T03:31:50;2.60;91.20
73955;DHT22;62306;52.516;13.290;2023-01-25T03:34:17;2.60;91.20
73955;DHT22;62306;52.516;13.290;2023-01-25T03:36:44;2.60;91.30
73955;DHT22;62306;52.516;13.290;2023-01-25T03:39:11;2.50;91.30
73955;DHT22;62306;52.516;13.290;2023-01-25T03:41:38;2.50;91.50
73955;DHT22;62306;52.516;13.290;2023-01-25T03:44:05;2.50;91.40
73955;DHT22;62306;52.516;13.290;2023-01-25T03:46:32;2.60;91.40
73955;DHT22;62306;52.516;13.290;2023-01-25T03:49:00;2.70;91.50
73955;DHT22;62306;52.516;13.290;2023-01-25T03:51:27;2.80;91.00
73955;DHT22;62306;52.516;13.290;2023-01-25T03:53:53;2.80;90.80
73955;DHT22;62306;52.516;13.290;2023-01-25T03:56:20;2.80;90.90
73955;DHT22;62306;52.516;13.290;2023-01-25T03:58:47;2.70;90.90
73955;DHT22;62306;52.516;13.290;2023-01-25T04:01:14;2.70;91.10
73955;DHT22;62306;52.516;13.290;2023-01-25T04:03:41;2.60;91.40
73955;DHT22;62306;52.516;13.290;2023-01-25T04:06:09;2.60;91.50
73955;DHT22;62306;52.516;13.290;2023-01-25T04:08:36;2.70;91.20
73955;DHT22;62306;52.516;13.290;2023-01-25T04:11:04;2.70;91.10
73955;DHT22;62306;52.516;13.290;2023-01-25T04:13:32;2.60;91.30
73955;DHT22;62306;52.516;13.290;2023-01-25T04:15:59;2.70;91.20
73955;DHT22;62306;52.516;13.290;2023-01-25T04:18:26;2.70;91.20
73955;DHT22;62306;52.516;13.290;2023-01-25T04:20:54;2.80;91.10
73955;DHT22;62306;52.516;13.290;2023-01-25T04:23:23;2.80;91.10
73955;DHT22;62306;52.516;13.290;2023-01-25T04:25:54;2.70;91.40
73955;DHT22;62306;52.516;13.290;2023-01-25T04:28:22;2.70;91.60
73955;DHT22;62306;52.516;13.290;2023-01-25T04:30:49;2.70;91.70
73955;DHT22;62306;52.516;13.290;2023-01-25T04:33:15;2.70;91.70
73955;DHT22;62306;52.516;13.290;2023-01-25T04:35:43;2.80;91.50
73955;DHT22;62306;52.516;13.290;2023-01-25T04:38:10;2.90;91.20
73955;DHT22;62306;52.516;13.290;2023-01-25T04:40:39;2.90;91.10
73955;DHT22;62306;52.516;13.290;2023-01-25T04:43:06;2.90;91.40
73955;DHT22;62306;52.516;13.290;2023-01-25T04:45:33;2.80;91.60
73955;DHT22;62306;52.516;13.290;2023-01-25T04:48:02;2.90;91.60
73955;DHT22;62306;52.516;13.290;2023-01-25T04:50:29;3.00;91.70
73955;DHT22;62306;52.516;13.290;2023-01-25T04:52:57;2.90;91.50
73955;DHT22;62306;52.516;13.290;2023-01-25T04:55:23;3.00;91.40
73955;DHT22;62306;52.516;13.290;2023-01-25T04:57:52;2.90;91.60
73955;DHT22;62306;52.516;13.290;2023-01-25T05:00:19;2.90;91.90
73955;DHT22;62306;52.516;13.290;2023-01-25T05:02:46;2.90;92.00
73955;DHT22;62306;52.516;13.290;2023-01-25T05:05:13;3.00;92.20
73955;DHT22;62306;52.516;13.290;2023-01-25T05:07:40;3.00;92.20
73955;DHT22;62306;52.516;13.290;2023-01-25T05:10:08;3.00;92.30
73955;DHT22;62306;52.516;13.290;2023-01-25T05:12:35;3.00;92.50
73955;DHT22;62306;52.516;13.290;2023-01-25T05:15:04;3.00;92.50
73955;DHT22;62306;52.516;13.290;2023-01-25T05:17:31;3.10;92.40
73955;DHT22;62306;52.516;13.290;2023-01-25T05:19:58;3.10;92.20
73955;DHT22;62306;52.516;13.290;2023-01-25T05:22:25;3.20;92.50
73955;DHT22;62306;52.516;13.290;2023-01-25T05:24:52;3.10;92.70
73955;DHT22;62306;52.516;13.290;2023-01-25T05:27:20;3.20;92.60
73955;DHT22;62306;52.516;13.290;2023-01-25T05:29:46;3.20;92.40
73955;DHT22;62306;52.516;13.290;2023-01-25T05:32:16;3.20;92.30
73955;DHT22;62306;52.516;13.290;2023-01-25T05:34:43;3.30;91.90
73955;DHT22;62306;52.516;13.290;2023-01-25T05:37:12;3.30;91.60
73955;DHT22;62306;52.516;13.290;2023-01-25T05:39:39;3.30;91.70
73955;DHT22;62306;52.516;13.290;2023-01-25T05:42:09;3.20;91.70
73955;DHT22;62306;52.516;13.290;2023-01-25T05:44:37;3.20;92.00
73955;DHT22;62306;52.516;13.290;2023-01-25T05:47:03;3.20;91.90
73955;DHT22;62306;52.516;13.290;2023-01-25T05:49:32;3.20;92.00
73955;DHT22;62306;52.516;13.290;2023-01-25T05:51:58;3.20;92.10
73955;DHT22;62306;52.516;13.290;2023-01-25T05:54:25;3.10;92.30
73955;DHT22;62306;52.516;13.290;2023-01-25T05:56:52;3.10;92.30
73955;DHT22;62306;52.516;13.290;2023-01-25T05:59:19;3.10;92.40
73955;DHT22;62306;52.516;13.290;2023-01-25T06:01:46;3.20;92.10
73955;DHT22;62306;52.516;13.290;2023-01-25T06:04:14;3.10;92.20
73955;DHT22;62306;52.516;13.290;2023-01-25T06:06:42;3.10;92.30
73955;DHT22;62306;52.516;13.290;2023-01-25T06:09:10;3.00;92.40
73955;DHT22;62306;52.516;13.290;2023-01-25T06:11:36;3.00;92.50
73955;DHT22;62306;52.516;13.290;2023-01-25T06:14:03;3.00;92.60
73955;DHT22;62306;52.516;13.290;2023-01-25T06:16:30;3.00;92.70
73955;DHT22;62306;52.516;13.290;2023-01-25T06:18:57;3.00;92.80
73955;DHT22;62306;52.516;13.290;2023-01-25T06:21:24;3.00;92.70
73955;DHT22;62306;52.516;13.290;2023-01-25T06:23:53;3.00;92.60
73955;DHT22;62306;52.516;13.290;2023-01-25T06:26:20;2.90;92.80
73955;DHT22;62306;52.516;13.290;2023-01-25T06:28:47;2.90;93.20
73955;DHT22;62306;52.516;13.290;2023-01-25T06:31:15;2.90;93.00
73955;DHT22;62306;52.516;13.290;2023-01-25T06:33:43;2.90;92.90
73955;DHT22;62306;52.516;13.290;2023-01-25T06:36:11;3.00;93.00
73955;DHT22;62306;52.516;13.290;2023-01-25T06:38:39;2.90;92.90
73955;DHT22;62306;52.516;13.290;2023-01-25T06:41:09;2.90;93.10
73955;DHT22;62306;52.516;13.290;2023-01-25T06:43:37;2.90;93.30
73955;DHT22;62306;52.516;13.290;2023-01-25T06:46:05;2.20;93.20
73955;DHT22;62306;52.516;13.290;2023-01-25T06:48:33;3.00;93.30
73955;DHT22;62306;52.516;13.290;2023-01-25T06:51:02;3.00;93.50
73955;DHT22;62306;52.516;13.290;2023-01-25T06:53:30;3.10;93.20
73955;DHT22;62306;52.516;13.290;2023-01-25T06:55:58;3.10;92.80
73955;DHT22;62306;52.516;13.290;2023-01-25T06:58:28;3.10;92.60
73955;DHT22;62306;52.516;13.290;2023-01-25T07:01:00;3.10;92.60
73955;DHT22;62306;52.516;13.290;2023-01-25T07:03:27;3.10;92.60
73955;DHT22;62306;52.516;13.290;2023-01-25T07:05:58;3.10;92.70
73955;DHT22;62306;52.516;13.290;2023-01-25T07:08:25;3.10;92.70
73955;DHT22;62306;52.516;13.290;2023-01-25T07:10:53;3.10;92.70
73955;DHT22;62306;52.516;13.290;2023-01-25T07:13:20;3.10;92.80
73955;DHT22;62306;52.516;13.290;2023-01-25T07:15:53;3.10;93.00
73955;DHT22;62306;52.516;13.290;2023-01-25T07:18:20;3.10;93.00
73955;DHT22;62306;52.516;13.290;2023-01-25T07:20:47;3.10;93.00
73955;DHT22;62306;52.516;13.290;2023-01-25T07:23:14;3.10;93.00
73955;DHT22;62306;52.516;13.290;2023-01-25T07:25:43;3.10;93.00
73955;DHT22;62306;52.516;13.290;2023-01-25T07:28:10;3.20;93.10
73955;DHT22;62306;52.516;13.290;2023-01-25T07:30:37;3.20;92.70
73955;DHT22;62306;52.516;13.290;2023-01-25T07:33:05;3.20;92.80
73955;DHT22;62306;52.516;13.290;2023-01-25T07:35:32;3.20;92.70
73955;DHT22;62306;52.516;13.290;2023-01-25T07:37:59;3.10;92.80
73955;DHT22;62306;52.516;13.290;2023-01-25T07:40:25;3.10;92.70
73955;DHT22;62306;52.516;13.290;2023-01-25T07:42:53;3.20;92.60
73955;DHT22;62306;52.516;13.290;2023-01-25T07:45:20;3.00;92.90
73955;DHT22;62306;52.516;13.290;2023-01-25T07:47:53;3.10;92.90
73955;DHT22;62306;52.516;13.290;2023-01-25T07:50:21;3.10;93.00
73955;DHT22;62306;52.516;13.290;2023-01-25T07:52:48;3.10;93.00
73955;DHT22;62306;52.516;13.290;2023-01-25T07:55:15;3.10;93.10
73955;DHT22;62306;52.516;13.290;2023-01-25T07:57:42;3.10;93.30
73955;DHT22;62306;52.516;13.290;2023-01-25T08:00:11;3.10;93.30
73955;DHT22;62306;52.516;13.290;2023-01-25T08:02:38;3.10;93.20
73955;DHT22;62306;52.516;13.290;2023-01-25T08:05:05;3.10;93.30
73955;DHT22;62306;52.516;13.290;2023-01-25T08:07:34;3.10;93.40
73955;DHT22;62306;52.516;13.290;2023-01-25T08:10:01;3.10;93.30
73955;DHT22;62306;52.516;13.290;2023-01-25T08:12:28;3.10;93.50
73955;DHT22;62306;52.516;13.290;2023-01-25T08:14:55;3.00;93.40
73955;DHT22;62306;52.516;13.290;2023-01-25T08:17:21;3.00;93.60
73955;DHT22;62306;52.516;13.290;2023-01-25T08:19:48;3.00;93.50
73955;DHT22;62306;52.516;13.290;2023-01-25T08:22:15;3.00;93.90
73955;DHT22;62306;52.516;13.290;2023-01-25T08:24:43;2.90;93.90
73955;DHT22;62306;52.516;13.290;2023-01-25T08:27:10;2.90;94.10
73955;DHT22;62306;52.516;13.290;2023-01-25T08:29:37;2.90;93.90
73955;DHT22;62306;52.516;13.290;2023-01-25T08:32:04;3.00;93.90
73955;DHT22;62306;52.516;13.290;2023-01-25T08:34:32;2.90;94.00
73955;DHT22;62306;52.516;13.290;2023-01-25T08:36:59;3.00;93.90
73955;DHT22;62306;52.516;13.290;2023-01-25T08:39:26;2.90;94.20
73955;DHT22;62306;52.516;13.290;2023-01-25T08:41:54;2.90;94.40
73955;DHT22;62306;52.516;13.290;2023-01-25T08:44:21;3.00;94.20
73955;DHT22;62306;52.516;13.290;2023-01-25T08:46:50;3.00;94.30
73955;DHT22;62306;52.516;13.290;2023-01-25T08:49:17;3.00;94.20
73955;DHT22;62306;52.516;13.290;2023-01-25T08:51:44;3.00;94.00
73955;DHT22;62306;52.516;13.290;2023-01-25T08:54:12;3.00;94.10
73955;DHT22;62306;52.516;13.290;2023-01-25T08:56:40;3.00;94.10
73955;DHT22;62306;52.516;13.290;2023-01-25T08:59:10;3.00;94.20
73955;DHT22;62306;52.516;13.290;2023-01-25T09:01:37;3.00;94.10
73955;DHT22;62306;52.516;13.290;2023-01-25T09:04:04;3.00;94.20
73955;DHT22;62306;52.516;13.290;2023-01-25T09:06:32;3.10;94.10
73955;DHT22;62306;52.516;13.290;2023-01-25T09:08:59;3.10;94.20
73955;DHT22;62306;52.516;13.290;2023-01-25T09:11:26;3.00;94.10
73955;DHT22;62306;52.516;13.290;2023-01-25T09:13:52;3.00;94.10
73955;DHT22;62306;52.516;13.290;2023-01-25T09:16:23;3.10;94.10
73955;DHT22;62306;52.516;13.290;2023-01-25T09:18:54;3.10;94.00
73955;DHT22;62306;52.516;13.290;2023-01-25T09:21:21;3.10;94.00
73955;DHT22;62306;52.516;13.290;2023-01-25T09:23:49;3.10;93.80
73955;DHT22;62306;52.516;13.290;2023-01-25T09:26:16;3.10;93.80
73955;DHT22;62306;52.516;13.290;2023-01-25T09:28:46;3.20;93.80
73955;DHT22;62306;52.516;13.290;2023-01-25T09:31:13;3.10;93.80
73955;DHT22;62306;52.516;13.290;2023-01-25T09:33:41;3.00;94.10
73955;DHT22;62306;52.516;13.290;2023-01-25T09:36:09;3.10;94.00
73955;DHT22;62306;52.516;13.290;2023-01-25T09:38:37;3.00;94.10
73955;DHT22;62306;52.516;13.290;2023-01-25T09:41:11;3.10;94.20
73955;DHT22;62306;52.516;13.290;2023-01-25T09:43:54;3.10;94.20
73955;DHT22;62306;52.516;13.290;2023-01-25T09:46:33;3.10;94.10
73955;DHT22;62306;52.516;13.290;2023-01-25T09:49:15;3.10;94.00
73955;DHT22;62306;52.516;13.290;2023-01-25T09:51:58;3.10;94.00
73955;DHT22;62306;52.516;13.290;2023-01-25T09:54:28;3.10;94.20
73955;DHT22;62306;52.516;13.290;2023-01-25T09:56:57;3.10;94.10
73955;DHT22;62306;52.516;13.290;2023-01-25T09:59:26;3.10;94.00
73955;DHT22;62306;52.516;13.290;2023-01-25T10:01:57;3.10;94.20
73955;DHT22;62306;52.516;13.290;2023-01-25T10:04:29;3.00;94.10
73955;DHT22;62306;52.516;13.290;2023-01-25T10:07:05;3.00;94.30
73955;DHT22;62306;52.516;13.290;2023-01-25T10:09:40;3.00;94.40
73955;DHT22;62306;52.516;13.290;2023-01-25T10:12:14;2.90;94.50
73955;DHT22;62306;52.516;13.290;2023-01-25T10:14:42;3.00;94.40
73955;DHT22;62306;52.516;13.290;2023-01-25T10:17:13;2.90;94.50
73955;DHT22;62306;52.516;13.290;2023-01-25T10:19:53;2.90;94.70
73955;DHT22;62306;52.516;13.290;2023-01-25T10:22:24;3.00;94.60
73955;DHT22;62306;52.516;13.290;2023-01-25T10:25:06;3.00;94.60
73955;DHT22;62306;52.516;13.290;2023-01-25T10:27:42;2.90;94.60
73955;DHT22;62306;52.516;13.290;2023-01-25T10:30:26;3.00;94.60
73955;DHT22;62306;52.516;13.290;2023-01-25T10:32:56;3.00;94.40
73955;DHT22;62306;52.516;13.290;2023-01-25T10:35:27;3.10;94.30
73955;DHT22;62306;52.516;13.290;2023-01-25T10:37:58;3.10;93.90
73955;DHT22;62306;52.516;13.290;2023-01-25T10:40:26;3.10;94.00
73955;DHT22;62306;52.516;13.290;2023-01-25T10:43:01;3.10;94.30
73955;DHT22;62306;52.516;13.290;2023-01-25T10:45:28;3.10;93.90
73955;DHT22;62306;52.516;13.290;2023-01-25T10:48:00;3.10;94.30
73955;DHT22;62306;52.516;13.290;2023-01-25T10:50:59;3.10;94.30
73955;DHT22;62306;52.516;13.290;2023-01-25T10:53:31;3.10;94.10
73955;DHT22;62306;52.516;13.290;2023-01-25T10:58:48;3.20;93.80
73955;DHT22;62306;52.516;13.290;2023-01-25T11:01:27;3.10;93.90
73955;DHT22;62306;52.516;13.290;2023-01-25T11:03:54;3.10;94.20
73955;DHT22;62306;52.516;13.290;2023-01-25T11:06:31;3.10;94.10
73955;DHT22;62306;52.516;13.290;2023-01-25T11:08:58;3.10;94.20
73955;DHT22;62306;52.516;13.290;2023-01-25T11:11:30;3.10;94.00
73955;DHT22;62306;52.516;13.290;2023-01-25T11:13:58;3.00;94.10
73955;DHT22;62306;52.516;13.290;2023-01-25T11:16:29;3.10;93.90
73955;DHT22;62306;52.516;13.290;2023-01-25T11:18:58;3.10;94.00
73955;DHT22;62306;52.516;13.290;2023-01-25T11:21:26;3.00;93.80
73955;DHT22;62306;52.516;13.290;2023-01-25T11:24:00;3.10;94.10
73955;DHT22;62306;52.516;13.290;2023-01-25T11:26:27;3.10;94.20
73955;DHT22;62306;52.516;13.290;2023-01-25T11:29:09;3.10;94.20
73955;DHT22;62306;52.516;13.290;2023-01-25T11:31:36;3.20;94.00
73955;DHT22;62306;52.516;13.290;2023-01-25T11:34:09;3.20;93.90
73955;DHT22;62306;52.516;13.290;2023-01-25T11:39:37;3.20;94.10
73955;DHT22;62306;52.516;13.290;2023-01-25T11:42:13;3.20;94.20
73955;DHT22;62306;52.516;13.290;2023-01-25T11:48:08;3.20;93.90
73955;DHT22;62306;52.516;13.290;2023-01-25T11:50:40;3.20;94.10
73955;DHT22;62306;52.516;13.290;2023-01-25T11:53:30;3.30;93.90
73955;DHT22;62306;52.516;13.290;2023-01-25T11:56:05;3.20;94.00
73955;DHT22;62306;52.516;13.290;2023-01-25T11:58:45;3.30;93.90
73955;DHT22;62306;52.516;13.290;2023-01-25T12:01:22;3.30;93.80
73955;DHT22;62306;52.516;13.290;2023-01-25T12:04:23;3.20;94.00
73955;DHT22;62306;52.516;13.290;2023-01-25T12:06:57;3.20;94.10
73955;DHT22;62306;52.516;13.290;2023-01-25T12:12:39;3.10;94.40
73955;DHT22;62306;52.516;13.290;2023-01-25T12:15:29;3.00;94.80
73955;DHT22;62306;52.516;13.290;2023-01-25T12:21:08;3.10;94.70
73955;DHT22;62306;52.516;13.290;2023-01-25T12:23:56;3.10;94.60
73955;DHT22;62306;52.516;13.290;2023-01-25T12:26:27;3.10;94.30
73955;DHT22;62306;52.516;13.290;2023-01-25T12:29:02;3.10;94.40
73955;DHT22;62306;52.516;13.290;2023-01-25T12:31:36;3.10;94.60
73955;DHT22;62306;52.516;13.290;2023-01-25T12:34:11;3.10;94.80
73955;DHT22;62306;52.516;13.290;2023-01-25T12:36:42;2.90;95.00
73955;DHT22;62306;52.516;13.290;2023-01-25T12:39:12;3.00;95.10
73955;DHT22;62306;52.516;13.290;2023-01-25T12:41:42;3.00;95.00
73955;DHT22;62306;52.516;13.290;2023-01-25T12:44:17;3.00;94.90
73955;DHT22;62306;52.516;13.290;2023-01-25T12:46:50;3.10;94.90
73955;DHT22;62306;52.516;13.290;2023-01-25T12:49:22;3.10;94.90
73955;DHT22;62306;52.516;13.290;2023-01-25T12:51:52;3.10;94.70
73955;DHT22;62306;52.516;13.290;2023-01-25T12:54:23;3.00;94.70
73955;DHT22;62306;52.516;13.290;2023-01-25T12:57:01;3.10;94.80
73955;DHT22;62306;52.516;13.290;2023-01-25T12:59:39;3.00;94.80
73955;DHT22;62306;52.516;13.290;2023-01-25T13:02:27;3.00;94.90
73955;DHT22;62306;52.516;13.290;2023-01-25T13:05:05;3.00;94.80
73955;DHT22;62306;52.516;13.290;2023-01-25T13:07:42;2.90;95.00
73955;DHT22;62306;52.516;13.290;2023-01-25T13:10:16;2.90;94.90
73955;DHT22;62306;52.516;13.290;2023-01-25T13:12:52;2.90;95.00
73955;DHT22;62306;52.516;13.290;2023-01-25T13:15:38;2.80;95.20
73955;DHT22;62306;52.516;13.290;2023-01-25T13:18:37;2.80;95.50
73955;DHT22;62306;52.516;13.290;2023-01-25T13:21:10;2.80;95.50
73955;DHT22;62306;52.516;13.290;2023-01-25T13:24:14;2.80;95.00
73955;DHT22;62306;52.516;13.290;2023-01-25T13:26:56;2.70;95.10
73955;DHT22;62306;52.516;13.290;2023-01-25T13:29:54;2.70;95.10
73955;DHT22;62306;52.516;13.290;2023-01-25T13:32:54;2.70;95.10
73955;DHT22;62306;52.516;13.290;2023-01-25T13:35:35;2.70;95.00
73955;DHT22;62306;52.516;13.290;2023-01-25T13:38:22;2.70;95.20
73955;DHT22;62306;52.516;13.290;2023-01-25T13:41:02;2.70;95.30
73955;DHT22;62306;52.516;13.290;2023-01-25T13:43:30;2.60;95.40
73955;DHT22;62306;52.516;13.290;2023-01-25T13:45:57;2.60;95.50
73955;DHT22;62306;52.516;13.290;2023-01-25T13:48:27;2.70;95.40
73955;DHT22;62306;52.516;13.290;2023-01-25T13:50:58;2.70;95.50
73955;DHT22;62306;52.516;13.290;2023-01-25T13:53:26;2.70;95.40
73955;DHT22;62306;52.516;13.290;2023-01-25T13:55:58;2.80;95.50
73955;DHT22;62306;52.516;13.290;2023-01-25T13:58:26;2.80;95.30
73955;DHT22;62306;52.516;13.290;2023-01-25T14:00:56;2.80;95.50
73955;DHT22;62306;52.516;13.290;2023-01-25T14:03:26;2.90;95.10
73955;DHT22;62306;52.516;13.290;2023-01-25T14:05:55;2.80;95.40
73955;DHT22;62306;52.516;13.290;2023-01-25T14:08:24;2.80;95.50
73955;DHT22;62306;52.516;13.290;2023-01-25T14:10:52;2.80;95.80
73955;DHT22;62306;52.516;13.290;2023-01-25T14:13:20;2.80;95.90
73955;DHT22;62306;52.516;13.290;2023-01-25T14:15:55;2.80;95.80
73955;DHT22;62306;52.516;13.290;2023-01-25T14:18:29;2.80;95.70
73955;DHT22;62306;52.516;13.290;2023-01-25T14:21:11;2.80;95.80
73955;DHT22;62306;52.516;13.290;2023-01-25T14:23:38;2.80;96.20
73955;DHT22;62306;52.516;13.290;2023-01-25T14:26:17;2.80;95.80
73955;DHT22;62306;52.516;13.290;2023-01-25T14:28:45;2.80;95.50
73955;DHT22;62306;52.516;13.290;2023-01-25T14:31:19;2.80;95.60
73955;DHT22;62306;52.516;13.290;2023-01-25T14:33:48;2.70;95.70
73955;DHT22;62306;52.516;13.290;2023-01-25T14:36:20;2.70;97.10
73955;DHT22;62306;52.516;13.290;2023-01-25T14:38:47;2.70;97.10
73955;DHT22;62306;52.516;13.290;2023-01-25T14:41:17;2.80;96.20
73955;DHT22;62306;52.516;13.290;2023-01-25T14:43:46;2.80;96.20
73955;DHT22;62306;52.516;13.290;2023-01-25T14:46:22;2.70;96.10
73955;DHT22;62306;52.516;13.290;2023-01-25T14:48:51;2.70;96.10
73955;DHT22;62306;52.516;13.290;2023-01-25T14:51:31;2.70;95.90
73955;DHT22;62306;52.516;13.290;2023-01-25T14:54:01;2.70;96.10
73955;DHT22;62306;52.516;13.290;2023-01-25T14:56:40;2.70;96.10
73955;DHT22;62306;52.516;13.290;2023-01-25T14:59:21;2.70;95.90
73955;DHT22;62306;52.516;13.290;2023-01-25T15:01:51;2.70;96.00
73955;DHT22;62306;52.516;13.290;2023-01-25T15:04:20;2.60;96.20
73955;DHT22;62306;52.516;13.290;2023-01-25T15:06:49;2.60;96.10
73955;DHT22;62306;52.516;13.290;2023-01-25T15:09:58;2.60;96.10
73955;DHT22;62306;52.516;13.290;2023-01-25T15:12:27;2.60;96.20
73955;DHT22;62306;52.516;13.290;2023-01-25T15:14:56;2.60;96.10
73955;DHT22;62306;52.516;13.290;2023-01-25T15:17:43;2.60;95.90
73955;DHT22;62306;52.516;13.290;2023-01-25T15:20:39;2.60;96.20
73955;DHT22;62306;52.516;13.290;2023-01-25T15:23:21;2.50;96.40
73955;DHT22;62306;52.516;13.290;2023-01-25T15:25:49;2.60;96.20
73955;DHT22;62306;52.516;13.290;2023-01-25T15:28:16;2.60;96.10
73955;DHT22;62306;52.516;13.290;2023-01-25T15:30:43;2.60;96.00
73955;DHT22;62306;52.516;13.290;2023-01-25T15:33:17;2.60;95.60
73955;DHT22;62306;52.516;13.290;2023-01-25T15:35:46;2.60;95.70
73955;DHT22;62306;52.516;13.290;2023-01-25T15:38:15;2.50;95.90
73955;DHT22;62306;52.516;13.290;2023-01-25T15:40:43;2.60;95.80
73955;DHT22;62306;52.516;13.290;2023-01-25T15:43:11;2.60;95.50
73955;DHT22;62306;52.516;13.290;2023-01-25T15:45:38;2.60;95.50
73955;DHT22;62306;52.516;13.290;2023-01-25T15:48:11;2.60;95.30
73955;DHT22;62306;52.516;13.290;2023-01-25T15:50:39;2.50;95.30
73955;DHT22;62306;52.516;13.290;2023-01-25T15:53:11;2.50;95.70
73955;DHT22;62306;52.516;13.290;2023-01-25T15:55:39;2.40;96.10
73955;DHT22;62306;52.516;13.290;2023-01-25T15:58:08;2.40;96.30
73955;DHT22;62306;52.516;13.290;2023-01-25T16:00:35;2.40;96.40
73955;DHT22;62306;52.516;13.290;2023-01-25T16:03:02;2.40;96.20
73955;DHT22;62306;52.516;13.290;2023-01-25T16:05:29;2.40;96.50